Impacts METAR Board
IDs:

KDEN - Denver Intl, CO, US

Updated at: 0700 UTC 21 Oct 2018
Potential Impact None Slight Moderate High
Time 20/19Z 20/20Z 20/21Z 20/22Z 20/23Z 21/00Z 21/01Z 21/02Z 21/03Z 21/04Z 21/05Z 21/06Z 21/07Z
Temp65 67 69 69 68 62 53 48 46 45 52 49 48
Dewpt22 21 22 21 22 24 26 27 28 25 22 21 22
Altim30.39 30.36 30.34 30.32 30.31 30.30 30.30 30.30 30.29 30.28 30.27 30.26 30.25
VIS10 10 10 10 10 10 10 10 10 10 10 10 10
CIG-- -- -- -- -- -- -- -- -- -- -- -- --
CoverCLRCLRCLRCLRCLRCLRCLRCLRCLRCLRCLRCLRCLR
FltCatVFRVFRVFRVFRVFRVFRVFRVFRVFRVFRVFRVFRVFR
WX--------------------------
WDir220270100120120120130150160170190180210
WSpd3 3 10 6 10 8 9 11 11 12 14 14 10
WGst-- -- 15 15 -- -- -- -- -- -- -- -- --
Raw hourly METARs
KDEN 201853Z 22003KT 10SM CLR 18/M06 A3039 RMK AO2 SLP254 T01831056
KDEN 201953Z 27003KT 10SM CLR 19/M06 A3036 RMK AO2 SLP240 T01941061
KDEN 202053Z 10010G15KT 10SM CLR 21/M06 A3034 RMK AO2 SLP229 T02061056 56025
KDEN 202153Z 12006G15KT 10SM CLR 21/M06 A3032 RMK AO2 SLP226 T02061061
KDEN 202253Z 12010KT 10SM CLR 20/M06 A3031 RMK AO2 SLP223 T02001056
KDEN 202353Z 12008KT 10SM CLR 17/M04 A3030 RMK AO2 SLP227 T01671044 10211 20167 56011
KDEN 210053Z 13009KT 10SM CLR 12/M03 A3030 RMK AO2 SLP239 T01171033
KDEN 210153Z 15011KT 10SM CLR 09/M03 A3030 RMK AO2 SLP241 T00891028
KDEN 210253Z 16011KT 10SM CLR 08/M02 A3029 RMK AO2 SLP231 T00781022 58003
KDEN 210353Z 17012KT 10SM CLR 07/M04 A3028 RMK AO2 SLP223 T00721039
KDEN 210453Z 19014KT 10SM CLR 11/M06 A3027 RMK AO2 SLP207 T01111056
KDEN 210553Z 18014KT 10SM CLR 09/M06 A3026 RMK AO2 SLP200 T00941061 10167 20067 58008
KDEN 210653Z 21010KT 10SM CLR 09/M06 A3025 RMK AO2 SLP195 T00891056 402110033



Page loaded:  07:37 UTC  |   12:37 AM Pacific  |   01:37 AM Mountain  |   02:37 AM Central  |   03:37 AM Eastern

 

ADVISORIES

FORECASTS

FORECASTS

OBSERVATIONS

USER TOOLS

ABOUT US